Time;durP1;ratioP1;P1;durP2;ratioP2;P2;SDS_P1;SDS_P2;PMS_P1;PMS_P2;Temp;Humidity;BMP_temperature;BMP_pressure;BME280_temperature;BME280_humidity;BME280_pressure;Samples;Min_cycle;Max_cycle;Signal;HPM_P1;HPM_P2
2022/09/11 00:01:39;;;;;;;1.90;0.80;;;;;;;15.05;100.00;96899.94;4906431;29;20636;-56
2022/09/11 00:04:09;;;;;;;2.10;1.13;;;;;;;15.04;100.00;96898.25;4905771;29;20236;-56
2022/09/11 00:06:36;;;;;;;1.13;1.00;;;;;;;15.03;100.00;96902.75;4890056;29;20220;-55
2022/09/11 00:09:05;;;;;;;1.10;1.00;;;;;;;14.99;100.00;96905.91;4906762;29;20308;-55
2022/09/11 00:11:34;;;;;;;1.33;0.97;;;;;;;15.01;100.00;96898.59;4907016;29;20301;-55
2022/09/11 00:14:01;;;;;;;0.80;0.80;;;;;;;15.01;100.00;96898.59;4906272;29;20206;-55
2022/09/11 00:16:30;;;;;;;1.43;0.90;;;;;;;15.01;100.00;96899.44;4906256;29;20204;-57
2022/09/11 00:18:58;;;;;;;1.35;0.90;;;;;;;15.03;100.00;96891.25;4906284;29;20237;-56
2022/09/11 00:21:28;;;;;;;1.30;1.10;;;;;;;15.02;100.00;96889.63;4907369;29;20212;-56
2022/09/11 00:23:56;;;;;;;1.37;1.20;;;;;;;15.03;100.00;96894.75;4905643;29;20690;-55
2022/09/11 00:26:23;;;;;;;2.90;1.27;;;;;;;15.03;100.00;96893.94;4906461;29;20222;-56
2022/09/11 00:28:51;;;;;;;1.40;1.20;;;;;;;15.02;100.00;96892.28;4906171;29;20238;-56
2022/09/11 00:31:21;;;;;;;3.63;1.40;;;;;;;15.07;100.00;96888.13;4906207;29;20251;-56
2022/09/11 00:33:50;;;;;;;4.27;1.50;;;;;;;15.07;100.00;96892.59;4905690;29;20203;-57
2022/09/11 00:36:21;;;;;;;2.60;1.17;;;;;;;15.05;100.00;96883.97;4892600;29;20199;-57
2022/09/11 00:38:49;;;;;;;1.52;1.42;;;;;;;15.02;100.00;96882.44;4910177;29;20296;-56
2022/09/11 00:41:20;;;;;;;1.40;1.30;;;;;;;15.07;100.00;96885.44;4910735;29;20295;-56
2022/09/11 00:43:52;;;;;;;1.10;0.93;;;;;;;15.14;100.00;96888.28;4910321;29;20243;-56
2022/09/11 00:46:20;;;;;;;3.17;1.30;;;;;;;15.08;100.00;96886.28;4911579;29;20251;-55
2022/09/11 00:48:48;;;;;;;2.03;1.13;;;;;;;15.13;100.00;96886.59;4916031;29;20208;-56
2022/09/11 00:51:17;;;;;;;2.03;1.00;;;;;;;15.09;100.00;96887.97;4932746;29;20184;-56
2022/09/11 00:53:44;;;;;;;1.47;0.90;;;;;;;15.06;100.00;96883.78;4925147;29;20243;-55
2022/09/11 00:56:14;;;;;;;1.20;1.00;;;;;;;15.02;100.00;96886.94;4913665;29;20287;-57
2022/09/11 00:58:43;;;;;;;1.77;1.40;;;;;;;14.98;100.00;96882.94;4913647;29;20361;-56
2022/09/11 01:01:13;;;;;;;1.17;1.08;;;;;;;14.94;100.00;96880.63;4914487;29;20212;-57
2022/09/11 01:03:41;;;;;;;1.37;0.83;;;;;;;14.90;100.00;96873.13;4893031;29;20310;-56
2022/09/11 01:06:08;;;;;;;1.77;1.00;;;;;;;14.91;100.00;96872.94;4910581;29;20204;-56
2022/09/11 01:08:35;;;;;;;1.00;0.90;;;;;;;14.94;100.00;96867.31;4909525;29;20200;-56
2022/09/11 01:11:12;;;;;;;1.73;1.15;;;;;;;14.95;100.00;96863.63;4909999;29;20242;-56
2022/09/11 01:13:44;;;;;;;4.60;1.10;;;;;;;15.00;100.00;96871.13;4909839;29;20216;-56
2022/09/11 01:16:17;;;;;;;0.97;0.80;;;;;;;15.04;100.00;96860.97;4909438;29;20294;-56
2022/09/11 01:18:49;;;;;;;3.30;0.98;;;;;;;15.09;100.00;96870.13;4909576;29;20295;-56
2022/09/11 01:21:38;;;;;;;2.38;1.23;;;;;;;15.12;100.00;96863.66;4909168;29;20570;-55
2022/09/11 01:24:17;;;;;;;1.80;0.98;;;;;;;15.15;100.00;96869.47;4909071;29;20315;-55
2022/09/11 01:27:26;;;;;;;1.05;0.88;;;;;;;15.20;100.00;96863.63;4908841;29;20243;-57
2022/09/11 01:29:58;;;;;;;1.48;1.08;;;;;;;15.23;100.00;96866.00;4859130;29;20204;-57
2022/09/11 01:32:29;;;;;;;2.30;0.93;;;;;;;15.26;100.00;96860.31;4908388;29;20208;-56
2022/09/11 01:35:01;;;;;;;2.30;1.00;;;;;;;15.29;100.00;96865.31;4910181;29;20232;-57
2022/09/11 01:37:34;;;;;;;1.20;0.88;;;;;;;15.30;100.00;96862.47;4909167;29;20208;-57
2022/09/11 01:40:06;;;;;;;0.80;0.68;;;;;;;15.32;100.00;96862.31;4908852;29;20236;-56
2022/09/11 01:42:36;;;;;;;1.73;1.10;;;;;;;15.32;100.00;96860.50;4908408;29;20254;-57
2022/09/11 01:45:06;;;;;;;4.03;0.97;;;;;;;15.37;100.00;96857.34;4908569;29;20232;-57
2022/09/11 01:47:34;;;;;;;2.33;0.90;;;;;;;15.38;99.36;96858.97;4908325;29;20227;-57
2022/09/11 01:50:02;;;;;;;1.57;0.97;;;;;;;15.38;98.95;96853.66;4908315;29;20216;-56
2022/09/11 01:52:31;;;;;;;1.27;0.98;;;;;;;15.41;98.37;96856.81;4908561;29;20200;-57
2022/09/11 01:55:01;;;;;;;1.60;0.67;;;;;;;15.42;98.20;96852.31;4891071;29;20232;-57
2022/09/11 01:57:31;;;;;;;3.07;1.13;;;;;;;15.44;97.29;96851.13;4908012;29;20219;-58
2022/09/11 02:00:01;;;;;;;1.05;0.88;;;;;;;15.41;100.00;96851.47;4908165;29;20294;-58
2022/09/11 02:02:33;;;;;;;1.25;1.05;;;;;;;15.34;100.00;96854.97;4908196;29;20307;-57
2022/09/11 02:05:03;;;;;;;1.67;1.10;;;;;;;15.30;100.00;96857.13;4908571;29;20235;-56
2022/09/11 02:07:33;;;;;;;1.38;1.10;;;;;;;15.23;100.00;96861.47;4908147;29;20291;-55
2022/09/11 02:10:03;;;;;;;3.85;1.10;;;;;;;15.21;100.00;96858.16;4908286;29;20291;-56
2022/09/11 02:12:34;;;;;;;2.67;1.08;;;;;;;15.10;100.00;96858.47;4908566;29;20205;-56
2022/09/11 02:15:01;;;;;;;2.53;0.88;;;;;;;15.11;100.00;96864.66;4891077;29;20208;-56
2022/09/11 02:17:44;;;;;;;3.15;1.00;;;;;;;15.08;100.00;96862.31;4908112;29;20308;-56
2022/09/11 02:20:11;;;;;;;1.97;1.10;;;;;;;15.07;100.00;96872.13;4908337;29;20291;-55
2022/09/11 02:22:39;;;;;;;1.40;0.90;;;;;;;14.99;100.00;96863.28;4907532;29;20224;-55
2022/09/11 02:25:06;;;;;;;3.03;0.90;;;;;;;14.91;100.00;96864.94;4907639;29;20235;-57
2022/09/11 02:27:33;;;;;;;1.20;1.10;;;;;;;14.86;100.00;96867.28;4908440;29;20214;-56
2022/09/11 02:30:00;;;;;;;1.10;0.75;;;;;;;14.85;100.00;96867.44;4907504;29;20232;-56
2022/09/11 02:32:27;;;;;;;2.42;1.35;;;;;;;14.84;100.00;96871.91;4907499;29;20902;-57
2022/09/11 02:34:55;;;;;;;1.45;0.88;;;;;;;14.84;100.00;96871.91;4907847;29;20318;-56
2022/09/11 02:37:34;;;;;;;3.55;1.23;;;;;;;14.89;100.00;96874.94;4907267;29;20682;-56
2022/09/11 02:40:14;;;;;;;1.73;1.00;;;;;;;14.90;100.00;96868.63;4907736;29;20222;-56
2022/09/11 02:42:53;;;;;;;2.47;1.07;;;;;;;14.87;100.00;96868.13;4907830;29;20248;-56
2022/09/11 02:45:32;;;;;;;1.48;1.10;;;;;;;14.85;100.00;96872.75;4890805;29;20245;-58
2022/09/11 02:48:11;;;;;;;1.98;0.90;;;;;;;14.92;100.00;96879.09;4908261;29;20590;-57
2022/09/11 02:50:42;;;;;;;1.42;0.98;;;;;;;14.88;100.00;96878.59;4907399;29;20630;-57
2022/09/11 02:53:12;;;;;;;1.95;1.17;;;;;;;14.86;100.00;96880.59;4907965;29;20592;-56
2022/09/11 02:55:47;;;;;;;1.07;0.90;;;;;;;14.85;100.00;96878.91;4907609;29;20290;-56
2022/09/11 02:58:20;;;;;;;2.27;1.13;;;;;;;14.84;100.00;96874.59;4907560;29;20231;-56
2022/09/11 03:00:47;;;;;;;2.37;1.03;;;;;;;14.85;100.00;96876.25;4906997;29;20602;-57
2022/09/11 03:03:14;;;;;;;1.90;0.95;;;;;;;14.85;100.00;96878.91;4907532;29;20236;-57
2022/09/11 03:05:43;;;;;;;2.70;0.90;;;;;;;14.89;100.00;96880.25;4908412;29;20220;-57
2022/09/11 03:08:10;;;;;;;3.67;1.40;;;;;;;14.90;100.00;96881.94;4908029;29;20620;-56
2022/09/11 03:10:37;;;;;;;1.77;1.25;;;;;;;14.89;100.00;96874.94;4931118;29;20215;-56
2022/09/11 03:13:04;;;;;;;2.38;1.10;;;;;;;14.90;100.00;96876.63;4929478;29;20198;-57
2022/09/11 03:15:32;;;;;;;2.33;0.85;;;;;;;14.92;100.00;96884.41;4928249;29;20212;-57
2022/09/11 03:18:00;;;;;;;1.77;1.45;;;;;;;15.01;100.00;96885.28;4906516;29;20205;-56
2022/09/11 03:20:27;;;;;;;1.60;1.13;;;;;;;15.00;100.00;96880.94;4907046;29;20208;-56
2022/09/11 03:22:55;;;;;;;3.20;1.13;;;;;;;14.98;100.00;96885.63;4906212;29;20208;-56
2022/09/11 03:25:27;;;;;;;1.40;1.30;;;;;;;14.97;100.00;96883.94;4907187;29;20232;-56
2022/09/11 03:27:54;;;;;;;3.33;1.40;;;;;;;14.90;100.00;96884.59;4907950;29;20215;-56
2022/09/11 03:30:20;;;;;;;1.00;1.00;;;;;;;14.87;100.00;96879.59;4906653;29;20224;-56
2022/09/11 03:32:48;;;;;;;2.47;1.00;;;;;;;14.89;100.00;96874.09;4906044;29;20295;-56
2022/09/11 03:35:15;;;;;;;1.63;1.20;;;;;;;14.88;100.00;96865.28;4906596;29;20224;-57
2022/09/11 03:37:46;;;;;;;4.10;1.50;;;;;;;14.86;100.00;96872.59;4906549;29;20208;-57
2022/09/11 03:40:14;;;;;;;2.83;1.30;;;;;;;14.86;100.00;96869.09;4906445;29;20200;-57
2022/09/11 03:42:40;;;;;;;2.93;1.30;;;;;;;14.83;100.00;96856.97;4906349;29;20240;-56
2022/09/11 03:45:08;;;;;;;1.77;0.93;;;;;;;14.81;100.00;96866.09;4906901;29;20254;-56
2022/09/11 03:47:36;;;;;;;2.97;1.20;;;;;;;14.79;100.00;96862.78;4905846;29;20216;-56
2022/09/11 03:50:02;;;;;;;2.60;1.25;;;;;;;14.70;100.00;96863.78;4906076;29;20215;-56
2022/09/11 03:52:30;;;;;;;1.48;1.17;;;;;;;14.71;100.00;96860.09;4906089;29;20537;-56
2022/09/11 03:54:57;;;;;;;1.63;1.23;;;;;;;14.64;100.00;96862.56;4905919;29;20629;-57
2022/09/11 03:57:24;;;;;;;2.23;1.20;;;;;;;14.66;100.00;96867.75;4905789;29;20560;-56
2022/09/11 03:59:51;;;;;;;1.70;1.20;;;;;;;14.62;100.00;96864.56;4906061;29;20299;-55
2022/09/11 04:02:18;;;;;;;2.63;1.37;;;;;;;14.58;100.00;96870.38;4906453;29;20205;-55
2022/09/11 04:04:45;;;;;;;2.47;1.30;;;;;;;14.55;100.00;96860.06;4906382;29;20243;-56
2022/09/11 04:07:12;;;;;;;3.37;1.50;;;;;;;14.55;100.00;96866.22;4906182;29;20303;-56
2022/09/11 04:09:39;;;;;;;2.10;1.63;;;;;;;14.53;100.00;96862.88;4905955;29;20223;-57
2022/09/11 04:12:05;;;;;;;4.63;1.30;;;;;;;14.48;100.00;96854.56;4905492;29;20296;-57
2022/09/11 04:14:36;;;;;;;2.37;1.43;;;;;;;14.46;100.00;96861.84;4906146;29;20219;-56
2022/09/11 04:17:03;;;;;;;2.17;1.50;;;;;;;14.47;100.00;96862.69;4906759;29;20200;-57
2022/09/11 04:19:29;;;;;;;2.47;1.43;;;;;;;14.44;100.00;96871.84;4905987;29;20620;-56
2022/09/11 04:21:56;;;;;;;3.00;1.70;;;;;;;14.39;100.00;96860.81;4905614;29;20203;-57
2022/09/11 04:24:23;;;;;;;1.30;1.17;;;;;;;14.37;100.00;96857.50;4906283;29;20213;-56
2022/09/11 04:26:49;;;;;;;3.33;1.63;;;;;;;14.32;100.00;96863.28;4905749;29;20664;-55
2022/09/11 04:29:17;;;;;;;2.40;1.47;;;;;;;14.31;100.00;96864.25;4905309;29;20582;-56
2022/09/11 04:31:45;;;;;;;2.53;1.17;;;;;;;14.29;100.00;96862.75;4905813;29;20228;-58
2022/09/11 04:34:12;;;;;;;2.47;1.43;;;;;;;14.33;100.00;96866.78;4906393;29;20298;-56
2022/09/11 04:36:40;;;;;;;2.30;1.40;;;;;;;14.26;100.00;96863.94;4905370;29;20213;-57
2022/09/11 04:39:06;;;;;;;3.27;1.80;;;;;;;14.18;100.00;96861.22;4905776;29;20315;-56
2022/09/11 04:41:33;;;;;;;2.83;1.47;;;;;;;14.16;100.00;96870.38;4905901;29;20208;-56
2022/09/11 04:44:00;;;;;;;4.03;1.93;;;;;;;14.12;100.00;96869.00;4905470;29;20236;-56
2022/09/11 04:46:27;;;;;;;4.33;1.30;;;;;;;14.07;100.00;96871.31;4906535;29;20228;-56
2022/09/11 04:48:58;;;;;;;2.40;1.50;;;;;;;14.06;100.00;96865.19;4906161;29;20310;-56
2022/09/11 04:51:26;;;;;;;3.70;1.27;;;;;;;14.03;100.00;96870.78;4906352;29;20208;-57
2022/09/11 04:53:56;;;;;;;2.97;1.70;;;;;;;14.00;100.00;96870.28;4906121;29;20212;-55
2022/09/11 04:56:24;;;;;;;1.80;1.17;;;;;;;13.96;100.00;96867.94;4907638;29;20207;-56
2022/09/11 04:58:54;;;;;;;1.73;1.20;;;;;;;13.93;100.00;96870.06;4907517;29;20295;-56
2022/09/11 05:01:22;;;;;;;1.40;1.30;;;;;;;13.94;100.00;96872.59;4907219;29;20216;-56
2022/09/11 05:03:51;;;;;;;5.63;1.50;;;;;;;13.85;100.00;96873.50;4907323;29;20223;-56
2022/09/11 05:06:19;;;;;;;2.50;1.37;;;;;;;13.88;100.00;96869.72;4906555;29;20320;-56
2022/09/11 05:08:46;;;;;;;2.90;1.67;;;;;;;13.82;100.00;96879.16;4906988;29;20319;-56
2022/09/11 05:11:15;;;;;;;1.80;1.30;;;;;;;13.77;100.00;96880.63;4906986;29;20208;-56
2022/09/11 05:13:42;;;;;;;4.93;1.40;;;;;;;13.78;100.00;96880.44;4906454;29;20196;-59
2022/09/11 05:16:12;;;;;;;2.50;1.83;;;;;;;13.70;100.00;96875.09;4905678;29;20590;-56
2022/09/11 05:18:40;;;;;;;1.70;1.60;;;;;;;13.68;100.00;96865.59;4906620;29;20204;-56
2022/09/11 05:21:11;;;;;;;1.93;1.80;;;;;;;13.65;100.00;96874.72;4906316;29;20205;-56
2022/09/11 05:23:40;;;;;;;3.60;1.63;;;;;;;13.63;100.00;96874.06;4908427;29;20243;-56
2022/09/11 05:26:07;;;;;;;3.67;1.40;;;;;;;13.63;100.00;96884.69;4908910;29;20243;-56
2022/09/11 05:28:34;;;;;;;1.67;1.37;;;;;;;13.60;100.00;96890.31;4908968;29;20677;-57
2022/09/11 05:31:01;;;;;;;4.67;1.60;;;;;;;13.61;100.00;96893.78;4928136;29;20200;-56
2022/09/11 05:33:28;;;;;;;1.53;1.37;;;;;;;13.60;100.00;96897.47;4931390;29;20260;-56
2022/09/11 05:35:55;;;;;;;2.27;1.60;;;;;;;13.60;100.00;96900.97;4929151;29;20196;-56
2022/09/11 05:38:22;;;;;;;1.70;1.13;;;;;;;13.62;100.00;96898.13;4908958;29;20641;-56
2022/09/11 05:40:52;;;;;;;1.60;1.40;;;;;;;13.65;100.00;96905.78;4908481;29;20240;-57
2022/09/11 05:43:19;;;;;;;2.37;1.50;;;;;;;13.69;100.00;96907.97;4908102;29;20642;-56
2022/09/11 05:45:54;;;;;;;3.93;1.93;;;;;;;13.73;100.00;96909.34;4892844;29;20239;-54
2022/09/11 05:48:20;;;;;;;4.03;1.63;;;;;;;13.80;100.00;96913.03;4909407;29;20230;-57
2022/09/11 05:50:55;;;;;;;4.13;1.93;;;;;;;13.89;100.00;96906.78;4908970;29;20606;-56
2022/09/11 05:53:22;;;;;;;2.37;1.67;;;;;;;13.95;100.00;96915.97;4909563;29;20208;-56
2022/09/11 05:55:50;;;;;;;1.70;1.40;;;;;;;13.99;100.00;96919.97;4907720;29;20197;-57
2022/09/11 05:58:19;;;;;;;3.23;1.63;;;;;;;14.05;100.00;96929.97;4907966;29;20802;-56
2022/09/11 06:00:46;;;;;;;2.50;1.27;;;;;;;14.11;100.00;96933.81;4907605;29;20208;-55
2022/09/11 06:03:13;;;;;;;1.73;1.40;;;;;;;14.16;100.00;96942.19;4908027;29;20223;-56
2022/09/11 06:05:41;;;;;;;2.47;1.20;;;;;;;14.26;100.00;96950.88;4908008;29;20228;-56
2022/09/11 06:08:08;;;;;;;3.40;1.80;;;;;;;14.31;100.00;96956.56;4907505;29;20213;-56
2022/09/11 06:10:34;;;;;;;2.10;1.60;;;;;;;14.35;100.00;96958.75;4908002;29;20204;-56
2022/09/11 06:13:03;;;;;;;5.87;1.93;;;;;;;14.39;100.00;96959.28;4907699;29;20303;-56
2022/09/11 06:15:31;;;;;;;3.27;1.60;;;;;;;14.46;100.00;96968.28;4908184;29;20593;-56
2022/09/11 06:17:59;;;;;;;1.53;1.43;;;;;;;14.49;100.00;96964.50;4890574;29;20231;-56
2022/09/11 06:20:25;;;;;;;3.57;1.63;;;;;;;14.54;100.00;96973.66;4908209;29;20213;-56
2022/09/11 06:22:53;;;;;;;2.50;1.43;;;;;;;14.58;100.00;96975.00;4907737;29;20200;-56
2022/09/11 06:25:20;;;;;;;2.40;1.87;;;;;;;14.63;100.00;96975.34;4907944;29;20228;-57
2022/09/11 06:27:47;;;;;;;5.20;1.77;;;;;;;14.68;100.00;96977.53;4907494;29;20291;-56
2022/09/11 06:30:13;;;;;;;1.97;1.57;;;;;;;14.75;100.00;96981.22;4908144;29;20218;-55
2022/09/11 06:32:41;;;;;;;2.50;1.47;;;;;;;14.82;100.00;96980.44;4907720;29;20247;-55
2022/09/11 06:35:09;;;;;;;2.53;1.67;;;;;;;14.84;100.00;96978.44;4906937;29;21634;-56
2022/09/11 06:37:36;;;;;;;2.87;1.70;;;;;;;14.90;100.00;96969.81;4906737;29;20236;-57
2022/09/11 06:40:03;;;;;;;1.87;1.70;;;;;;;14.97;100.00;96974.50;4906999;29;20216;-56
2022/09/11 06:42:29;;;;;;;4.73;2.17;;;;;;;15.03;100.00;96976.50;4907673;29;20267;-56
2022/09/11 06:44:56;;;;;;;2.13;1.07;;;;;;;15.10;100.00;96972.19;4907447;29;20299;-56
2022/09/11 06:47:23;;;;;;;2.63;1.60;;;;;;;15.19;100.00;96977.38;4906566;29;20232;-56
2022/09/11 06:49:51;;;;;;;1.93;1.80;;;;;;;15.21;100.00;96969.22;4907078;29;20304;-56
2022/09/11 06:52:17;;;;;;;2.88;1.80;;;;;;;15.27;100.00;96964.06;4907281;29;20299;-56
2022/09/11 06:54:44;;;;;;;2.50;1.67;;;;;;;15.36;100.00;96957.75;4907436;29;20213;-56
2022/09/11 06:57:11;;;;;;;1.60;1.50;;;;;;;15.45;100.00;96962.09;4890425;29;20199;-57
2022/09/11 06:59:37;;;;;;;1.70;1.20;;;;;;;15.55;100.00;96961.97;4906366;29;20634;-56
2022/09/11 07:02:04;;;;;;;1.63;1.40;;;;;;;15.66;100.00;96958.94;4906248;29;20335;-55
2022/09/11 07:04:30;;;;;;;2.47;1.80;;;;;;;15.77;100.00;96955.13;4906818;29;20255;-57
2022/09/11 07:06:58;;;;;;;3.17;1.57;;;;;;;15.99;100.00;96958.94;4906615;29;20235;-56
2022/09/11 07:09:25;;;;;;;2.55;1.60;;;;;;;16.11;100.00;96968.25;4906867;29;20308;-55
2022/09/11 07:11:52;;;;;;;2.20;1.60;;;;;;;16.26;100.00;96969.25;4906603;29;20646;-55
2022/09/11 07:14:20;;;;;;;2.05;1.48;;;;;;;16.39;100.00;96959.69;4906457;29;20544;-55
2022/09/11 07:16:49;;;;;;;3.75;2.05;;;;;;;16.62;100.00;96954.47;4907281;29;20283;-56
2022/09/11 07:19:17;;;;;;;2.53;1.40;;;;;;;16.70;100.00;96958.94;4906520;29;20220;-57
2022/09/11 07:21:44;;;;;;;2.45;1.48;;;;;;;16.74;100.00;96949.59;4906451;29;20284;-55
2022/09/11 07:24:12;;;;;;;2.25;1.70;;;;;;;16.91;100.00;96954.69;4906972;29;20219;-56
2022/09/11 07:26:39;;;;;;;2.17;1.38;;;;;;;16.98;100.00;96951.28;4906822;29;20267;-56
2022/09/11 07:29:06;;;;;;;2.75;1.30;;;;;;;17.06;100.00;96954.78;4906677;29;20656;-56
2022/09/11 07:31:33;;;;;;;3.17;1.60;;;;;;;17.19;100.00;96956.84;4906484;29;20299;-55
2022/09/11 07:34:01;;;;;;;2.95;1.30;;;;;;;17.31;97.81;96953.63;4906673;29;20303;-56
2022/09/11 07:36:29;;;;;;;1.02;1.02;;;;;;;17.54;98.89;96958.94;4906515;29;20211;-57
2022/09/11 07:38:57;;;;;;;2.22;1.45;;;;;;;17.68;97.30;96965.38;4907384;29;20219;-56
2022/09/11 07:41:27;;;;;;;1.13;1.02;;;;;;;17.78;94.83;96963.31;4907080;29;20250;-56
2022/09/11 07:43:55;;;;;;;1.42;1.33;;;;;;;17.75;92.40;96967.19;4908891;29;20236;-56
2022/09/11 07:46:23;;;;;;;4.45;1.83;;;;;;;17.79;95.52;96962.28;4911309;29;20311;-56
2022/09/11 07:48:52;;;;;;;1.75;1.65;;;;;;;17.75;96.33;96961.81;4912134;29;20208;-55
2022/09/11 07:51:19;;;;;;;3.45;1.20;;;;;;;17.74;89.70;96967.38;4915025;29;20629;-57
2022/09/11 07:53:48;;;;;;;2.53;1.45;;;;;;;17.62;87.41;96961.59;4916213;29;20268;-56
2022/09/11 07:56:17;;;;;;;2.80;1.10;;;;;;;17.64;89.77;96959.56;4920448;29;20205;-57
2022/09/11 07:58:46;;;;;;;2.15;1.20;;;;;;;17.75;88.26;96963.66;4908675;29;20787;-57
2022/09/11 08:01:14;;;;;;;3.42;0.90;;;;;;;17.74;87.13;96970.03;4907755;29;20232;-57
2022/09/11 08:03:43;;;;;;;2.10;1.23;;;;;;;17.78;88.58;96969.47;4908302;29;20204;-56
2022/09/11 08:06:12;;;;;;;2.42;1.10;;;;;;;17.78;89.57;96972.16;4906975;29;20233;-57
2022/09/11 08:08:40;;;;;;;1.80;1.05;;;;;;;17.80;89.22;96967.47;4907967;29;20220;-55
2022/09/11 08:11:09;;;;;;;1.83;1.05;;;;;;;17.86;91.96;96966.75;4910976;29;20295;-56
2022/09/11 08:13:36;;;;;;;2.55;1.30;;;;;;;17.82;86.90;96967.28;4914180;29;20298;-56
2022/09/11 08:16:07;;;;;;;1.92;1.35;;;;;;;17.73;86.79;96963.84;4920318;29;20218;-56
2022/09/11 08:18:35;;;;;;;3.80;1.25;;;;;;;17.87;87.14;96971.09;4926461;29;20204;-57
2022/09/11 08:21:03;;;;;;;1.20;1.10;;;;;;;17.84;84.85;96966.09;4928198;29;20256;-56
2022/09/11 08:23:31;;;;;;;2.15;1.20;;;;;;;17.94;85.28;96970.38;4934673;29;20566;-56
2022/09/11 08:26:04;;;;;;;1.23;1.10;;;;;;;18.16;85.29;96973.00;4931181;29;20214;-57
2022/09/11 08:28:31;;;;;;;2.17;1.20;;;;;;;18.24;79.74;96972.94;4926750;29;20180;-56
2022/09/11 08:30:57;;;;;;;2.88;1.25;;;;;;;18.49;81.14;96970.84;4924807;29;20200;-55
2022/09/11 08:33:25;;;;;;;1.13;1.02;;;;;;;18.52;80.82;96970.50;4923066;29;20211;-57
2022/09/11 08:35:52;;;;;;;2.42;1.30;;;;;;;18.48;81.98;96969.16;4917081;29;20234;-57
2022/09/11 08:38:19;;;;;;;1.65;1.10;;;;;;;18.59;80.39;96967.91;4909447;29;20252;-56
2022/09/11 08:40:47;;;;;;;1.05;1.00;;;;;;;18.82;82.04;96969.47;4908855;29;20311;-55
2022/09/11 08:43:20;;;;;;;3.78;1.30;;;;;;;19.00;79.30;96969.06;4912246;29;20272;-55
2022/09/11 08:45:48;;;;;;;1.15;1.05;;;;;;;19.12;77.78;96961.38;4920924;29;20189;-56
2022/09/11 08:48:15;;;;;;;1.13;0.75;;;;;;;19.06;77.62;96964.81;4918908;29;20524;-61
2022/09/11 08:50:43;;;;;;;2.35;1.20;;;;;;;18.95;77.25;96973.34;4924918;29;20205;-55
2022/09/11 08:53:14;;;;;;;1.88;1.00;;;;;;;19.12;77.72;96966.75;4932702;29;20309;-56
2022/09/11 08:55:46;;;;;;;1.48;0.90;;;;;;;19.49;77.75;96969.22;4929412;29;20185;-57
2022/09/11 08:58:18;;;;;;;2.10;1.00;;;;;;;19.82;76.42;96961.50;4924214;29;20189;-59
2022/09/11 09:00:51;;;;;;;1.50;1.08;;;;;;;20.00;73.63;96958.38;4928605;29;20198;-55
2022/09/11 09:03:59;;;;;;;0.85;0.85;;;;;;;20.35;73.58;96966.31;4926210;29;20207;-55
2022/09/11 09:06:52;;;;;;;1.20;0.70;;;;;;;20.85;71.12;96961.66;4880119;29;20216;-57
2022/09/11 09:09:24;;;;;;;2.33;1.23;;;;;;;21.12;68.75;96957.25;4919273;29;20739;-58
2022/09/11 09:11:56;;;;;;;0.88;0.88;;;;;;;21.44;65.29;96967.28;4917823;29;20263;-56
2022/09/11 09:14:33;;;;;;;1.35;0.65;;;;;;;21.87;68.44;96964.25;4921033;29;20240;-56
2022/09/11 09:17:03;;;;;;;2.33;1.45;;;;;;;22.05;65.73;96959.94;4920184;29;20227;-56
2022/09/11 09:19:33;;;;;;;2.78;0.80;;;;;;;22.18;64.38;96957.25;4909714;29;20663;-55
2022/09/11 09:22:06;;;;;;;0.70;0.70;;;;;;;22.37;61.48;96970.91;4909256;29;20238;-56
2022/09/11 09:24:37;;;;;;;1.00;0.68;;;;;;;22.69;63.89;96964.69;4909173;29;20196;-55
2022/09/11 09:27:07;;;;;;;1.27;0.60;;;;;;;22.32;60.99;96966.13;4909351;29;20347;-56
2022/09/11 09:29:38;;;;;;;1.75;0.77;;;;;;;22.27;61.49;96957.88;4910259;29;20200;-56
2022/09/11 09:32:07;;;;;;;1.85;1.02;;;;;;;22.03;61.83;96959.34;4909008;29;20204;-55
2022/09/11 09:34:37;;;;;;;5.45;4.53;;;;;;;21.82;63.63;96954.91;4908783;29;20212;-56
2022/09/11 09:37:07;;;;;;;1.38;1.38;;;;;;;21.60;63.28;96950.78;4908939;29;20205;-56
2022/09/11 09:39:35;;;;;;;2.03;0.70;;;;;;;21.53;64.19;96949.94;4909305;29;20201;-55
2022/09/11 09:42:23;;;;;;;1.17;0.57;;;;;;;21.18;60.69;96951.06;4908953;29;20211;-57
2022/09/11 09:45:17;;;;;;;1.27;0.88;;;;;;;20.85;61.14;96938.28;4908306;29;20203;-57
2022/09/11 09:47:44;;;;;;;1.52;0.73;;;;;;;20.55;61.46;96944.94;4908838;29;20235;-54
2022/09/11 09:50:18;;;;;;;0.50;0.50;;;;;;;20.24;62.70;96941.81;4908038;29;20293;-56
2022/09/11 09:52:46;;;;;;;1.05;0.47;;;;;;;19.96;66.58;96943.66;4908527;29;20238;-54
2022/09/11 09:55:15;;;;;;;2.35;0.80;;;;;;;19.74;68.56;96935.63;4908152;29;20307;-55
2022/09/11 09:57:43;;;;;;;0.57;0.57;;;;;;;19.75;68.29;96941.84;4908412;29;20583;-54
2022/09/11 10:00:16;;;;;;;1.80;0.85;;;;;;;19.64;69.96;96940.50;4891961;29;20219;-55
2022/09/11 10:02:48;;;;;;;1.13;0.88;;;;;;;19.56;71.63;96939.78;4907518;29;20212;-54
2022/09/11 10:05:25;;;;;;;0.85;0.70;;;;;;;20.02;69.55;96934.81;4891903;29;20215;-55
2022/09/11 10:07:57;;;;;;;1.38;0.82;;;;;;;20.61;65.96;96936.09;4909348;29;20216;-55
2022/09/11 10:10:29;;;;;;;0.95;0.60;;;;;;;21.17;65.19;96933.28;4929601;29;20191;-55
2022/09/11 10:12:59;;;;;;;1.02;0.40;;;;;;;21.74;64.64;96932.78;4934098;29;20207;-55
2022/09/11 10:15:26;;;;;;;3.10;2.80;;;;;;;22.17;64.30;96933.22;4932895;29;20219;-55
2022/09/11 10:17:54;;;;;;;0.75;0.75;;;;;;;22.41;60.08;96931.75;4910603;29;20213;-55
2022/09/11 10:20:26;;;;;;;2.20;0.80;;;;;;;22.47;61.70;96937.09;4908928;29;20219;-55
2022/09/11 10:22:55;;;;;;;2.05;1.67;;;;;;;22.60;60.82;96923.59;4908317;29;20555;-55
2022/09/11 10:25:25;;;;;;;1.38;0.68;;;;;;;22.35;57.07;96921.81;4908150;29;20553;-54
2022/09/11 10:28:07;;;;;;;0.98;0.80;;;;;;;21.77;61.56;96919.72;4908722;29;20623;-55
2022/09/11 10:30:37;;;;;;;1.77;0.88;;;;;;;21.58;62.52;96912.44;4907719;29;20215;-56
2022/09/11 10:33:06;;;;;;;0.70;0.68;;;;;;;21.30;63.16;96917.16;4908749;29;20204;-56
2022/09/11 10:35:35;;;;;;;2.58;1.30;;;;;;;21.19;63.60;96920.44;4908239;29;20212;-54
2022/09/11 10:38:16;;;;;;;3.85;1.67;;;;;;;21.70;64.46;96918.06;4907713;29;20260;-56
2022/09/11 10:40:53;;;;;;;0.82;0.80;;;;;;;22.23;61.50;96922.44;4907631;29;20200;-54
2022/09/11 10:43:26;;;;;;;1.92;1.00;;;;;;;22.15;59.94;96927.19;4906595;29;20304;-55
2022/09/11 10:46:05;;;;;;;3.05;2.75;;;;;;;22.79;61.38;96921.91;4907450;29;20906;-53
2022/09/11 10:48:32;;;;;;;1.35;1.25;;;;;;;23.25;54.98;96919.03;4907935;29;20238;-54
2022/09/11 10:51:11;;;;;;;2.00;1.90;;;;;;;23.61;55.00;96924.66;4907501;29;20227;-56
2022/09/11 10:53:50;;;;;;;1.13;0.80;;;;;;;23.98;53.19;96922.13;4907397;29;20214;-55
2022/09/11 10:56:17;;;;;;;1.02;0.90;;;;;;;24.36;52.44;96911.19;4907570;29;20295;-55
2022/09/11 10:58:46;;;;;;;1.13;0.90;;;;;;;24.57;50.55;96919.72;4907054;29;20208;-55
2022/09/11 11:01:13;;;;;;;0.75;0.60;;;;;;;24.85;51.75;96915.69;4907441;29;20204;-54
2022/09/11 11:03:39;;;;;;;2.25;1.25;;;;;;;24.81;51.42;96919.84;4907251;29;20307;-53
2022/09/11 11:06:19;;;;;;;1.90;0.82;;;;;;;25.06;50.49;96910.63;4908012;29;20250;-56
2022/09/11 11:09:15;;;;;;;1.33;0.70;;;;;;;25.15;50.49;96914.66;4907780;29;20246;-54
2022/09/11 11:11:54;;;;;;;2.28;0.60;;;;;;;24.62;52.58;96908.22;4907151;29;20513;-55
2022/09/11 11:14:53;;;;;;;1.10;0.90;;;;;;;24.45;49.99;96910.66;4906647;29;20284;-54
2022/09/11 11:17:27;;;;;;;1.05;0.82;;;;;;;24.16;49.87;96911.38;4906766;29;20259;-56
2022/09/11 11:20:09;;;;;;;1.52;0.90;;;;;;;23.84;49.07;96902.47;4906432;29;20541;-53
2022/09/11 11:23:04;;;;;;;0.75;0.75;;;;;;;24.15;51.45;96888.94;4907037;29;20207;-56
2022/09/11 11:25:39;;;;;;;1.23;0.50;;;;;;;23.79;51.47;96892.34;4906701;29;20230;-54
2022/09/11 11:28:18;;;;;;;1.65;1.55;;;;;;;23.70;52.38;96896.34;4907676;29;20729;-55
2022/09/11 11:30:53;;;;;;;1.00;0.90;;;;;;;23.23;52.11;96899.53;4906516;29;20680;-56
2022/09/11 11:33:41;;;;;;;2.45;1.00;;;;;;;22.56;55.45;96898.13;4906541;29;20626;-54
2022/09/11 11:36:10;;;;;;;1.13;0.60;;;;;;;22.14;57.91;96893.25;4906602;29;20298;-55
2022/09/11 11:38:43;;;;;;;1.38;0.90;;;;;;;22.74;56.57;96889.38;4906456;29;20328;-56
2022/09/11 11:41:16;;;;;;;1.00;0.90;;;;;;;23.26;57.68;96888.31;4906211;29;20664;-54
2022/09/11 11:43:43;;;;;;;1.30;0.60;;;;;;;23.44;55.59;96896.53;4906163;29;20617;-57